createdAt,value
2023-05-06T00:00:18.855Z,86.63
2023-05-06T00:01:19.041Z,86.74
2023-05-06T00:02:19.267Z,85.82
2023-05-06T00:03:19.562Z,86.02
2023-05-06T00:04:19.630Z,86.33
2023-05-06T00:05:19.747Z,86.74
2023-05-06T00:06:19.952Z,87.35
2023-05-06T00:07:20.106Z,86.63
2023-05-06T00:08:20.270Z,86.63
2023-05-06T00:09:20.467Z,87.35
2023-05-06T00:10:20.618Z,87.38
2023-05-06T00:11:20.802Z,86.74
2023-05-06T00:12:20.983Z,85.86
2023-05-06T00:13:21.187Z,86.06
2023-05-06T00:14:21.316Z,86.77
2023-05-06T00:15:21.517Z,86.88
2023-05-06T00:16:21.698Z,86.16
2023-05-06T00:17:21.848Z,85.96
2023-05-06T00:18:21.998Z,86.16
2023-05-06T00:19:22.183Z,86.16
2023-05-06T00:20:22.357Z,86.47
2023-05-06T00:21:22.555Z,86.68
2023-05-06T00:22:22.740Z,85.25
2023-05-06T00:23:22.907Z,85.45
2023-05-06T00:24:23.066Z,85.45
2023-05-06T00:25:23.250Z,85.86
2023-05-06T00:26:23.457Z,85.75
2023-05-06T00:27:23.614Z,85.75
2023-05-06T00:28:23.781Z,85.75
2023-05-06T00:29:23.965Z,85.66
2023-05-06T00:30:24.120Z,85.25
2023-05-06T00:31:24.380Z,85.14
2023-05-06T00:32:24.509Z,85.35
2023-05-06T00:33:24.671Z,85.05
2023-05-06T00:34:24.853Z,83.82
2023-05-06T00:35:25.047Z,83.01
2023-05-06T00:36:25.156Z,83.82
2023-05-06T00:37:25.354Z,82.50
2023-05-06T00:38:25.506Z,81.68
2023-05-06T00:39:25.700Z,81.58
2023-05-06T00:40:25.873Z,81.52
2023-05-06T00:41:26.013Z,82.54
2023-05-06T00:42:26.184Z,82.74
2023-05-06T00:43:26.386Z,81.62
2023-05-06T00:44:26.530Z,81.72
2023-05-06T00:45:26.739Z,82.54
2023-05-06T00:46:26.996Z,81.01
2023-05-06T00:47:27.097Z,81.72
2023-05-06T00:48:27.244Z,82.13
2023-05-06T00:49:27.419Z,81.93
2023-05-06T00:50:27.610Z,81.72
2023-05-06T00:51:27.801Z,82.84
2023-05-06T00:52:27.984Z,85.60
2023-05-06T00:53:28.163Z,85.49
2023-05-06T00:54:28.357Z,84.58
2023-05-06T00:55:28.548Z,84.37
2023-05-06T00:56:28.701Z,84.27
2023-05-06T00:57:28.893Z,83.86
2023-05-06T00:58:29.100Z,82.94
2023-05-06T00:59:29.262Z,82.94
2023-05-06T01:00:29.418Z,82.43
2023-05-06T01:01:29.673Z,82.64
2023-05-06T01:02:43.292Z,82.94
2023-05-06T01:03:31.004Z,82.29
2023-05-06T01:04:30.231Z,82.60
2023-05-06T01:05:30.319Z,82.90
2023-05-06T01:06:30.478Z,82.19
2023-05-06T01:07:30.669Z,81.58
2023-05-06T01:08:30.827Z,81.38
2023-05-06T01:09:30.995Z,81.48
2023-05-06T01:10:31.144Z,81.68
2023-05-06T01:11:31.340Z,82.09
2023-05-06T01:12:31.513Z,80.66
2023-05-06T01:13:31.692Z,81.88
2023-05-06T01:14:31.851Z,81.07
2023-05-06T01:15:32.024Z,81.79
2023-05-06T01:16:32.301Z,81.27
2023-05-06T01:17:32.417Z,80.46
2023-05-06T01:18:32.628Z,81.79
2023-05-06T01:19:32.759Z,80.87
2023-05-06T01:20:32.906Z,80.87
2023-05-06T01:21:33.111Z,80.36
2023-05-06T01:22:33.273Z,80.26
2023-05-06T01:23:33.440Z,80.56
2023-05-06T01:24:33.608Z,82.84
2023-05-06T01:25:33.805Z,83.35
2023-05-06T01:26:33.944Z,83.86
2023-05-06T01:27:34.146Z,84.67
2023-05-06T01:28:34.285Z,84.06
2023-05-06T01:29:34.468Z,84.88
2023-05-06T01:30:34.635Z,85.19
2023-05-06T01:31:34.849Z,83.96
2023-05-06T01:32:35.028Z,84.47
2023-05-06T01:33:35.175Z,84.00
2023-05-06T01:34:35.358Z,84.82
2023-05-06T01:35:35.528Z,85.84
2023-05-06T01:36:35.723Z,86.65
2023-05-06T01:37:35.855Z,87.77
2023-05-06T01:38:35.996Z,88.79
2023-05-06T01:39:36.170Z,88.84
2023-05-06T01:40:36.351Z,89.55
2023-05-06T01:41:36.554Z,90.16
2023-05-06T01:42:36.736Z,90.47
2023-05-06T01:43:36.908Z,90.57
2023-05-06T01:44:37.081Z,89.04
2023-05-06T01:45:37.283Z,89.14
2023-05-06T01:46:37.490Z,90.77
2023-05-06T01:47:37.683Z,90.67
2023-05-06T01:48:37.803Z,91.28
2023-05-06T01:49:37.945Z,91.39
2023-05-06T01:50:38.131Z,88.93
2023-05-06T01:51:38.311Z,88.73
2023-05-06T01:52:38.484Z,88.84
2023-05-06T01:53:38.671Z,88.32
2023-05-06T01:54:38.837Z,88.32
2023-05-06T01:55:39.037Z,88.93
2023-05-06T01:56:39.211Z,88.73
2023-05-06T01:57:39.420Z,88.93
2023-05-06T01:58:39.567Z,88.12
2023-05-06T01:59:39.772Z,87.82
2023-05-06T02:00:39.949Z,87.10
2023-05-06T02:01:40.144Z,88.32
2023-05-06T02:02:40.425Z,89.14
2023-05-06T02:03:40.560Z,88.93
2023-05-06T02:04:40.639Z,87.82
2023-05-06T02:05:40.792Z,88.32
2023-05-06T02:06:40.974Z,87.61
2023-05-06T02:07:41.138Z,87.92
2023-05-06T02:08:41.348Z,87.61
2023-05-06T02:09:41.488Z,86.90
2023-05-06T02:10:41.644Z,87.30
2023-05-06T02:11:41.845Z,86.69
2023-05-06T02:12:42.038Z,86.39
2023-05-06T02:13:42.235Z,87.00
2023-05-06T02:14:42.365Z,87.30
2023-05-06T02:15:42.719Z,88.22
2023-05-06T02:16:42.691Z,87.00
2023-05-06T02:17:42.896Z,87.41
2023-05-06T02:18:43.048Z,86.59
2023-05-06T02:19:43.185Z,86.39
2023-05-06T02:20:43.363Z,85.37
2023-05-06T02:21:43.546Z,86.39
2023-05-06T02:22:43.749Z,86.49
2023-05-06T02:23:43.916Z,85.37
2023-05-06T02:24:44.069Z,84.96
2023-05-06T02:25:44.256Z,85.37
2023-05-06T02:26:44.432Z,86.18
2023-05-06T02:27:44.629Z,85.68
2023-05-06T02:28:44.806Z,86.29
2023-05-06T02:29:44.952Z,86.18
2023-05-06T02:30:45.130Z,84.86
2023-05-06T02:31:45.315Z,85.16
2023-05-06T02:32:45.483Z,85.47
2023-05-06T02:33:45.672Z,86.29
2023-05-06T02:34:45.827Z,88.63
2023-05-06T02:35:45.984Z,88.02
2023-05-06T02:36:46.186Z,88.22
2023-05-06T02:37:46.325Z,89.34
2023-05-06T02:38:46.497Z,89.75
2023-05-06T02:39:46.676Z,89.86
2023-05-06T02:40:46.883Z,89.45
2023-05-06T02:41:47.064Z,88.63
2023-05-06T02:42:47.262Z,88.22
2023-05-06T02:43:47.388Z,88.12
2023-05-06T02:44:47.576Z,87.71
2023-05-06T02:45:47.775Z,86.49
2023-05-06T02:46:47.936Z,86.39
2023-05-06T02:47:48.137Z,87.61
2023-05-06T02:48:48.278Z,87.20
2023-05-06T02:49:48.451Z,87.30
2023-05-06T02:50:48.629Z,87.30
2023-05-06T02:51:48.809Z,87.00
2023-05-06T02:52:48.998Z,86.80
2023-05-06T02:53:49.187Z,86.90
2023-05-06T02:54:49.355Z,86.39
2023-05-06T02:55:49.511Z,86.80
2023-05-06T02:56:49.704Z,86.80
2023-05-06T02:57:49.839Z,86.90
2023-05-06T02:58:50.007Z,85.98
2023-05-06T02:59:50.176Z,85.88
2023-05-06T03:00:50.388Z,86.18
2023-05-06T03:01:50.530Z,86.90
2023-05-06T03:02:50.722Z,86.29
2023-05-06T03:03:50.913Z,85.77
2023-05-06T03:04:51.079Z,85.88
2023-05-06T03:05:51.258Z,85.68
2023-05-06T03:06:51.384Z,85.77
2023-05-06T03:07:51.567Z,86.39
2023-05-06T03:08:51.724Z,85.77
2023-05-06T03:09:51.907Z,85.43
2023-05-06T03:10:52.085Z,85.63
2023-05-06T03:11:52.251Z,85.43
2023-05-06T03:12:52.432Z,85.94
2023-05-06T03:13:52.613Z,85.63
2023-05-06T03:14:52.780Z,84.51
2023-05-06T03:15:52.930Z,84.72
2023-05-06T03:16:53.245Z,84.61
2023-05-06T03:17:53.319Z,84.61
2023-05-06T03:18:53.454Z,83.90
2023-05-06T03:19:53.603Z,83.29
2023-05-06T03:20:53.768Z,82.27
2023-05-06T03:21:53.948Z,82.88
2023-05-06T03:22:54.093Z,83.29
2023-05-06T03:23:54.289Z,83.59
2023-05-06T03:24:54.474Z,83.49
2023-05-06T03:25:54.622Z,82.88
2023-05-06T03:26:54.807Z,82.98
2023-05-06T03:27:54.948Z,82.88
2023-05-06T03:28:55.132Z,83.09
2023-05-06T03:29:55.295Z,83.49
2023-05-06T03:30:55.481Z,83.49
2023-05-06T03:31:55.710Z,83.09
2023-05-06T03:32:55.873Z,81.76
2023-05-06T03:33:55.979Z,82.37
2023-05-06T03:34:56.147Z,82.57
2023-05-06T03:35:56.309Z,82.27
2023-05-06T03:36:56.475Z,82.27
2023-05-06T03:37:56.669Z,82.17
2023-05-06T03:38:56.814Z,82.37
2023-05-06T03:39:57.031Z,81.86
2023-05-06T03:40:57.151Z,81.96
2023-05-06T03:41:57.344Z,81.15
2023-05-06T03:42:57.513Z,81.96
2023-05-06T03:43:57.673Z,82.47
2023-05-06T03:44:57.842Z,82.47
2023-05-06T03:45:58.017Z,81.76
2023-05-06T03:46:58.208Z,82.07
2023-05-06T03:47:58.735Z,82.07
2023-05-06T03:48:58.563Z,82.54
2023-05-06T03:49:58.725Z,82.54
2023-05-06T03:50:58.906Z,81.62
2023-05-06T03:51:59.086Z,81.45
2023-05-06T03:52:59.250Z,81.35
2023-05-06T03:53:59.404Z,80.80
2023-05-06T03:54:59.600Z,82.03
2023-05-06T03:55:59.765Z,81.72
2023-05-06T03:56:59.966Z,81.11
2023-05-06T03:58:00.145Z,80.40
2023-05-06T03:59:00.326Z,81.01
2023-05-06T04:00:00.505Z,81.31
2023-05-06T04:01:00.696Z,81.62
2023-05-06T04:02:00.884Z,80.80
2023-05-06T04:03:01.145Z,80.50
2023-05-06T04:04:01.302Z,80.70
2023-05-06T04:05:01.431Z,81.11
2023-05-06T04:06:01.601Z,80.91
2023-05-06T04:07:01.738Z,81.01
2023-05-06T04:08:01.949Z,81.21
2023-05-06T04:09:02.085Z,80.91
2023-05-06T04:10:02.261Z,80.29
2023-05-06T04:11:02.437Z,80.29
2023-05-06T04:12:02.591Z,80.50
2023-05-06T04:13:02.838Z,80.19
2023-05-06T04:14:02.957Z,80.70
2023-05-06T04:15:03.167Z,79.68
2023-05-06T04:16:03.343Z,79.48
2023-05-06T04:17:03.506Z,79.38
2023-05-06T04:18:03.708Z,79.79
2023-05-06T04:19:06.239Z,79.89
2023-05-06T04:20:04.029Z,80.70
2023-05-06T04:21:04.208Z,80.09
2023-05-06T04:22:04.358Z,80.29
2023-05-06T04:23:04.517Z,79.48
2023-05-06T04:24:04.729Z,79.58
2023-05-06T04:25:04.886Z,79.68
2023-05-06T04:26:05.043Z,79.27
2023-05-06T04:27:05.228Z,79.79
2023-05-06T04:28:05.408Z,79.27
2023-05-06T04:29:05.609Z,79.89
2023-05-06T04:30:05.776Z,78.56
2023-05-06T04:31:05.953Z,79.27
2023-05-06T04:32:06.296Z,79.27
2023-05-06T04:33:06.291Z,78.87
2023-05-06T04:34:06.451Z,79.48
2023-05-06T04:35:06.600Z,79.38
2023-05-06T04:36:06.787Z,79.79
2023-05-06T04:37:07.006Z,79.07
2023-05-06T04:38:07.150Z,78.97
2023-05-06T04:39:07.326Z,79.48
2023-05-06T04:40:07.509Z,78.46
2023-05-06T04:41:07.655Z,78.77
2023-05-06T04:42:07.820Z,79.58
2023-05-06T04:43:08.021Z,79.99
2023-05-06T04:44:08.173Z,79.89
2023-05-06T04:45:08.502Z,78.26
2023-05-06T04:46:08.593Z,78.46
2023-05-06T04:47:08.691Z,79.58
2023-05-06T04:48:08.919Z,79.68
2023-05-06T04:49:10.370Z,78.87
2023-05-06T04:50:09.233Z,79.03
2023-05-06T04:51:09.426Z,78.66
2023-05-06T04:52:09.619Z,78.46
2023-05-06T04:53:09.818Z,78.53
2023-05-06T04:54:09.960Z,77.75
2023-05-06T04:55:10.258Z,77.34
2023-05-06T04:56:10.305Z,78.16
2023-05-06T04:57:10.514Z,78.66
2023-05-06T04:58:10.667Z,79.17
2023-05-06T04:59:10.848Z,78.36
2023-05-06T05:00:11.215Z,78.05
2023-05-06T05:01:11.225Z,77.44
2023-05-06T05:02:11.396Z,77.95
2023-05-06T05:03:11.728Z,77.34
2023-05-06T05:04:11.726Z,77.95
2023-05-06T05:05:12.169Z,77.85
2023-05-06T05:06:12.124Z,77.95
2023-05-06T05:07:12.287Z,77.85
2023-05-06T05:08:12.432Z,78.50
2023-05-06T05:09:12.625Z,78.66
2023-05-06T05:10:12.767Z,77.58
2023-05-06T05:11:12.993Z,78.36
2023-05-06T05:12:13.142Z,78.87
2023-05-06T05:13:13.347Z,78.26
2023-05-06T05:14:13.481Z,78.56
2023-05-06T05:15:13.661Z,77.55
2023-05-06T05:16:13.829Z,77.85
2023-05-06T05:17:14.046Z,78.36
2023-05-06T05:18:14.148Z,78.66
2023-05-06T05:19:14.321Z,79.17
2023-05-06T05:20:14.519Z,77.64
2023-05-06T05:21:14.651Z,77.85
2023-05-06T05:22:14.826Z,77.75
2023-05-06T05:23:14.997Z,76.83
2023-05-06T05:24:15.174Z,77.85
2023-05-06T05:25:15.385Z,78.26
2023-05-06T05:26:15.540Z,77.85
2023-05-06T05:27:15.729Z,77.44
2023-05-06T05:28:15.870Z,77.44
2023-05-06T05:29:16.068Z,77.03
2023-05-06T05:30:16.239Z,77.44
2023-05-06T05:31:16.464Z,76.22
2023-05-06T05:32:16.612Z,76.25
2023-05-06T05:33:16.876Z,77.07
2023-05-06T05:34:16.992Z,76.46
2023-05-06T05:35:17.141Z,75.85
2023-05-06T05:36:17.296Z,76.76
2023-05-06T05:37:17.492Z,76.97
2023-05-06T05:38:17.683Z,76.46
2023-05-06T05:39:17.875Z,75.54
2023-05-06T05:40:18.043Z,76.56
2023-05-06T05:41:18.206Z,77.48
2023-05-06T05:42:18.388Z,78.39
2023-05-06T05:43:18.582Z,76.66
2023-05-06T05:44:18.751Z,76.35
2023-05-06T05:45:18.919Z,76.35
2023-05-06T05:46:19.109Z,76.56
2023-05-06T05:47:19.245Z,77.48
2023-05-06T05:48:19.444Z,78.60
2023-05-06T05:49:19.601Z,79.00
2023-05-06T05:50:19.776Z,76.66
2023-05-06T05:51:19.946Z,77.58
2023-05-06T05:52:20.106Z,76.53
2023-05-06T05:53:20.310Z,76.83
2023-05-06T05:54:20.448Z,76.53
2023-05-06T05:55:20.610Z,77.55
2023-05-06T05:56:20.784Z,78.26
2023-05-06T05:57:21.009Z,77.64
2023-05-06T05:58:21.162Z,76.93
2023-05-06T05:59:21.310Z,76.73
2023-05-06T06:00:21.490Z,76.93
2023-05-06T06:01:21.672Z,75.20
2023-05-06T06:02:21.990Z,77.03
2023-05-06T06:03:22.109Z,76.62
2023-05-06T06:04:22.305Z,77.14
2023-05-06T06:05:22.362Z,76.12
2023-05-06T06:06:22.557Z,76.22
2023-05-06T06:07:22.781Z,76.15
2023-05-06T06:08:22.902Z,75.34
2023-05-06T06:09:23.076Z,76.35
2023-05-06T06:10:23.259Z,75.74
2023-05-06T06:11:23.433Z,75.03
2023-05-06T06:12:23.677Z,76.15
2023-05-06T06:13:25.306Z,74.11
2023-05-06T06:14:23.957Z,75.95
2023-05-06T06:15:24.127Z,76.05
2023-05-06T06:16:24.384Z,75.54
2023-05-06T06:17:24.560Z,75.74
2023-05-06T06:18:24.713Z,74.93
2023-05-06T06:19:24.853Z,75.44
2023-05-06T06:20:25.059Z,75.95
2023-05-06T06:21:25.180Z,75.85
2023-05-06T06:22:25.359Z,76.15
2023-05-06T06:23:25.532Z,74.93
2023-05-06T06:24:25.700Z,74.83
2023-05-06T06:25:25.910Z,74.93
2023-05-06T06:26:26.090Z,74.93
2023-05-06T06:27:26.257Z,74.73
2023-05-06T06:28:26.457Z,75.44
2023-05-06T06:29:26.634Z,75.03
2023-05-06T06:30:26.827Z,75.60
2023-05-06T06:31:27.001Z,74.90
2023-05-06T06:32:27.197Z,75.10
2023-05-06T06:33:27.315Z,73.57
2023-05-06T06:34:27.511Z,74.18
2023-05-06T06:35:27.668Z,74.49
2023-05-06T06:36:27.856Z,74.58
2023-05-06T06:37:28.068Z,74.28
2023-05-06T06:38:28.184Z,75.37
2023-05-06T06:39:28.358Z,75.57
2023-05-06T06:40:28.531Z,73.02
2023-05-06T06:41:28.703Z,74.55
2023-05-06T06:42:28.896Z,73.74
2023-05-06T06:43:29.058Z,74.04
2023-05-06T06:44:29.239Z,73.23
2023-05-06T06:45:29.392Z,74.45
2023-05-06T06:46:29.559Z,75.37
2023-05-06T06:47:29.791Z,75.57
2023-05-06T06:48:29.904Z,74.21
2023-05-06T06:49:30.071Z,74.01
2023-05-06T06:50:30.256Z,73.40
2023-05-06T06:51:30.418Z,73.91
2023-05-06T06:52:30.621Z,74.11
2023-05-06T06:53:30.779Z,73.71
2023-05-06T06:54:30.966Z,74.01
2023-05-06T06:55:31.112Z,75.23
2023-05-06T06:56:31.311Z,74.72
2023-05-06T06:57:31.469Z,73.10
2023-05-06T06:58:31.657Z,73.91
2023-05-06T06:59:31.825Z,74.21
2023-05-06T07:00:32.045Z,73.36
2023-05-06T07:01:32.209Z,73.36
2023-05-06T07:02:32.419Z,73.30
2023-05-06T07:03:32.561Z,73.50
2023-05-06T07:04:32.734Z,73.40
2023-05-06T07:05:32.889Z,72.86
2023-05-06T07:06:33.161Z,73.47
2023-05-06T07:07:33.308Z,74.18
2023-05-06T07:08:33.445Z,73.77
2023-05-06T07:09:35.091Z,73.06
2023-05-06T07:10:33.772Z,72.55
2023-05-06T07:11:33.949Z,73.33
2023-05-06T07:12:34.188Z,73.84
2023-05-06T07:13:34.316Z,72.21
2023-05-06T07:14:34.486Z,71.60
2023-05-06T07:15:34.706Z,72.31
2023-05-06T07:16:34.897Z,72.21
2023-05-06T07:17:35.100Z,71.30
2023-05-06T07:18:35.191Z,70.28
2023-05-06T07:19:35.363Z,72.11
2023-05-06T07:20:35.537Z,71.97
2023-05-06T07:21:35.728Z,71.57
2023-05-06T07:22:35.921Z,72.48
2023-05-06T07:23:36.082Z,73.30
2023-05-06T07:24:36.275Z,72.69
2023-05-06T07:25:36.438Z,71.36
2023-05-06T07:26:36.610Z,72.17
2023-05-06T07:27:36.782Z,71.26
2023-05-06T07:28:36.923Z,71.36
2023-05-06T07:29:37.093Z,70.65
2023-05-06T07:30:37.279Z,70.86
2023-05-06T07:31:37.475Z,72.01
2023-05-06T07:32:37.688Z,73.43
2023-05-06T07:33:37.782Z,73.33
2023-05-06T07:34:37.959Z,73.33
2023-05-06T07:35:38.111Z,73.02
2023-05-06T07:36:40.000Z,73.63
2023-05-06T07:37:38.527Z,73.33
2023-05-06T07:38:38.651Z,73.54
2023-05-06T07:39:38.827Z,72.82
2023-05-06T07:40:39.007Z,73.33
2023-05-06T07:41:39.186Z,73.02
2023-05-06T07:42:41.477Z,72.62
2023-05-06T07:43:39.552Z,72.01
2023-05-06T07:44:39.730Z,73.74
2023-05-06T07:45:39.881Z,72.25
2023-05-06T07:46:40.186Z,72.04
2023-05-06T07:47:40.393Z,73.47
2023-05-06T07:48:40.385Z,73.57
2023-05-06T07:49:40.576Z,73.26
2023-05-06T07:50:40.722Z,72.96
2023-05-06T07:51:40.871Z,73.77
2023-05-06T07:52:41.052Z,72.75
2023-05-06T07:53:41.272Z,73.47
2023-05-06T07:54:41.422Z,74.58
2023-05-06T07:55:41.581Z,74.58
2023-05-06T07:56:41.776Z,72.65
2023-05-06T07:57:41.940Z,72.45
2023-05-06T07:58:42.128Z,73.40
2023-05-06T07:59:42.284Z,73.10
2023-05-06T08:00:42.500Z,72.78
2023-05-06T08:01:42.637Z,73.50
2023-05-06T08:02:42.928Z,73.60
2023-05-06T08:03:43.230Z,72.69
2023-05-06T08:04:43.277Z,73.91
2023-05-06T08:05:43.361Z,74.52
2023-05-06T08:06:43.587Z,74.01
2023-05-06T08:07:43.759Z,72.78
2023-05-06T08:08:43.903Z,73.30
2023-05-06T08:09:44.073Z,73.19
2023-05-06T08:10:44.229Z,74.11
2023-05-06T08:11:44.428Z,74.72
2023-05-06T08:12:44.618Z,74.52
2023-05-06T08:13:44.736Z,72.89
2023-05-06T08:14:45.011Z,73.10
2023-05-06T08:15:45.312Z,72.99
2023-05-06T08:16:45.448Z,73.19
2023-05-06T08:17:45.455Z,72.78
2023-05-06T08:18:45.640Z,73.23
2023-05-06T08:19:45.803Z,72.82
2023-05-06T08:20:45.995Z,74.32
2023-05-06T08:21:46.160Z,72.72
2023-05-06T08:22:46.342Z,73.54
2023-05-06T08:23:46.491Z,73.74
2023-05-06T08:24:46.676Z,73.60
2023-05-06T08:25:46.849Z,73.33
2023-05-06T08:26:47.060Z,74.21
2023-05-06T08:27:47.230Z,72.89
2023-05-06T08:28:47.418Z,73.40
2023-05-06T08:29:47.594Z,74.32
2023-05-06T08:30:47.829Z,74.01
2023-05-06T08:31:48.057Z,73.50
2023-05-06T08:32:48.198Z,72.89
2023-05-06T08:33:48.283Z,72.99
2023-05-06T08:34:48.466Z,73.50
2023-05-06T08:35:48.648Z,74.18
2023-05-06T08:36:48.842Z,74.18
2023-05-06T08:37:48.992Z,72.86
2023-05-06T08:38:49.185Z,72.96
2023-05-06T08:39:49.333Z,73.87
2023-05-06T08:40:49.525Z,72.34
2023-05-06T08:41:49.670Z,72.96
2023-05-06T08:42:49.881Z,73.06
2023-05-06T08:43:50.040Z,72.55
2023-05-06T08:44:50.255Z,72.55
2023-05-06T08:45:50.423Z,73.36
2023-05-06T08:46:50.554Z,73.16
2023-05-06T08:47:50.784Z,72.65
2023-05-06T08:48:50.909Z,73.47
2023-05-06T08:49:51.069Z,72.25
2023-05-06T08:50:51.254Z,73.26
2023-05-06T08:51:51.385Z,73.43
2023-05-06T08:52:51.580Z,72.52
2023-05-06T08:53:51.747Z,72.21
2023-05-06T08:54:51.946Z,72.92
2023-05-06T08:55:52.109Z,72.41
2023-05-06T08:56:52.282Z,72.72
2023-05-06T08:57:52.422Z,72.62
2023-05-06T08:58:52.602Z,73.54
2023-05-06T08:59:52.773Z,71.60
2023-05-06T09:00:52.974Z,72.41
2023-05-06T09:01:53.085Z,73.33
2023-05-06T09:02:53.430Z,71.80
2023-05-06T09:03:53.457Z,72.62
2023-05-06T09:04:53.614Z,71.50
2023-05-06T09:05:53.773Z,72.01
2023-05-06T09:06:53.975Z,72.41
2023-05-06T09:07:54.123Z,71.91
2023-05-06T09:08:54.336Z,71.91
2023-05-06T09:09:54.478Z,71.94
2023-05-06T09:10:54.650Z,72.25
2023-05-06T09:11:54.807Z,72.55
2023-05-06T09:12:55.025Z,71.53
2023-05-06T09:13:55.152Z,71.53
2023-05-06T09:14:55.297Z,72.55
2023-05-06T09:15:55.480Z,72.96
2023-05-06T09:16:55.692Z,72.45
2023-05-06T09:17:55.905Z,72.55
2023-05-06T09:18:56.048Z,73.84
2023-05-06T09:19:56.211Z,71.30
2023-05-06T09:20:57.064Z,72.45
2023-05-06T09:21:56.530Z,72.75
2023-05-06T09:22:56.732Z,72.41
2023-05-06T09:23:56.886Z,72.45
2023-05-06T09:24:57.183Z,73.13
2023-05-06T09:25:57.222Z,73.33
2023-05-06T09:26:57.401Z,74.01
2023-05-06T09:27:57.596Z,72.08
2023-05-06T09:28:57.759Z,72.28
2023-05-06T09:29:57.933Z,73.09
2023-05-06T09:30:58.202Z,71.97
2023-05-06T09:31:58.303Z,70.75
2023-05-06T09:32:58.509Z,71.03
2023-05-06T09:33:58.628Z,70.45
2023-05-06T09:34:58.854Z,71.16
2023-05-06T09:35:58.995Z,70.45
2023-05-06T09:36:59.188Z,70.55
2023-05-06T09:37:59.350Z,71.36
2023-05-06T09:38:59.540Z,71.36
2023-05-06T09:39:59.750Z,70.86
2023-05-06T09:40:59.907Z,70.55
2023-05-06T09:42:00.113Z,70.75
2023-05-06T09:43:00.280Z,71.16
2023-05-06T09:44:00.505Z,71.87
2023-05-06T09:45:01.561Z,70.96
2023-05-06T09:46:00.894Z,70.55
2023-05-06T09:47:00.969Z,71.57
2023-05-06T09:48:01.292Z,71.16
2023-05-06T09:49:01.328Z,70.86
2023-05-06T09:50:01.500Z,71.16
2023-05-06T09:51:01.700Z,71.26
2023-05-06T09:52:01.836Z,71.57
2023-05-06T09:53:02.037Z,70.86
2023-05-06T09:54:02.190Z,69.74
2023-05-06T09:55:02.436Z,70.25
2023-05-06T09:56:02.531Z,71.57
2023-05-06T09:57:02.713Z,71.03
2023-05-06T09:58:02.875Z,71.53
2023-05-06T09:59:03.069Z,70.92
2023-05-06T10:00:03.257Z,70.11
2023-05-06T10:01:03.459Z,70.42
2023-05-06T10:02:03.690Z,70.82
2023-05-06T10:03:03.921Z,71.33
2023-05-06T10:04:04.169Z,71.64
2023-05-06T10:05:04.493Z,71.84
2023-05-06T10:06:04.314Z,72.75
2023-05-06T10:07:04.496Z,71.33
2023-05-06T10:08:04.668Z,71.43
2023-05-06T10:09:04.863Z,71.73
2023-05-06T10:10:05.025Z,71.94
2023-05-06T10:11:05.230Z,70.72
2023-05-06T10:12:05.389Z,70.72
2023-05-06T10:13:05.564Z,72.04
2023-05-06T10:14:05.733Z,72.14
2023-05-06T10:15:05.912Z,71.12
2023-05-06T10:16:06.138Z,70.82
2023-05-06T10:17:06.247Z,70.72
2023-05-06T10:18:06.469Z,70.62
2023-05-06T10:19:06.755Z,70.72
2023-05-06T10:20:06.782Z,70.21
2023-05-06T10:21:06.937Z,70.62
2023-05-06T10:22:07.109Z,70.62
2023-05-06T10:23:07.298Z,71.12
2023-05-06T10:24:07.581Z,71.67
2023-05-06T10:25:07.768Z,72.08
2023-05-06T10:26:07.856Z,71.77
2023-05-06T10:27:07.995Z,71.36
2023-05-06T10:28:09.647Z,72.58
2023-05-06T10:29:09.382Z,73.19
2023-05-06T10:30:08.561Z,72.99
2023-05-06T10:31:08.704Z,73.60
2023-05-06T10:32:09.022Z,73.60
2023-05-06T10:33:09.108Z,73.39
2023-05-06T10:34:09.293Z,73.19
2023-05-06T10:35:09.653Z,72.55
2023-05-06T10:36:09.586Z,73.46
2023-05-06T10:37:09.781Z,73.26
2023-05-06T10:38:09.937Z,72.65
2023-05-06T10:39:10.121Z,71.84
2023-05-06T10:40:10.299Z,72.55
2023-05-06T10:41:10.450Z,73.87
2023-05-06T10:42:10.637Z,73.06
2023-05-06T10:43:10.809Z,73.57
2023-05-06T10:44:11.027Z,73.33
2023-05-06T10:45:11.417Z,72.25
2023-05-06T10:46:11.426Z,71.43
2023-05-06T10:47:11.534Z,72.25
2023-05-06T10:48:11.694Z,71.73
2023-05-06T10:49:11.870Z,72.25
2023-05-06T10:50:12.034Z,72.65
2023-05-06T10:51:12.195Z,73.26
2023-05-06T10:52:12.364Z,73.74
2023-05-06T10:53:12.509Z,73.33
2023-05-06T10:54:12.682Z,73.13
2023-05-06T10:55:13.074Z,71.50
2023-05-06T10:56:13.048Z,72.11
2023-05-06T10:57:13.185Z,72.41
2023-05-06T10:58:13.372Z,72.08
2023-05-06T10:59:13.540Z,72.58
2023-05-06T11:00:13.709Z,72.48
2023-05-06T11:01:13.896Z,71.97
2023-05-06T11:02:14.073Z,71.97
2023-05-06T11:03:14.315Z,72.58
2023-05-06T11:04:14.420Z,71.16
2023-05-06T11:05:14.627Z,71.88
2023-05-06T11:06:14.802Z,71.47
2023-05-06T11:07:14.967Z,72.08
2023-05-06T11:08:15.143Z,71.57
2023-05-06T11:09:15.332Z,71.97
2023-05-06T11:10:15.536Z,71.47
2023-05-06T11:11:15.654Z,70.96
2023-05-06T11:12:15.851Z,72.17
2023-05-06T11:13:16.084Z,71.88
2023-05-06T11:14:16.222Z,72.92
2023-05-06T11:15:16.391Z,72.82
2023-05-06T11:16:16.585Z,73.63
2023-05-06T11:17:16.729Z,72.58
2023-05-06T11:18:16.914Z,72.72
2023-05-06T11:19:17.112Z,72.62
2023-05-06T11:20:17.259Z,72.92
2023-05-06T11:21:17.438Z,73.22
2023-05-06T11:22:17.643Z,72.31
2023-05-06T11:23:17.800Z,72.21
2023-05-06T11:24:18.039Z,72.72
2023-05-06T11:25:18.142Z,74.14
2023-05-06T11:26:18.335Z,74.14
2023-05-06T11:27:18.488Z,72.82
2023-05-06T11:28:18.686Z,73.02
2023-05-06T11:29:18.820Z,72.92
2023-05-06T11:30:19.013Z,72.75
2023-05-06T11:31:19.279Z,73.26
2023-05-06T11:32:19.368Z,74.28
2023-05-06T11:33:19.607Z,72.65
2023-05-06T11:34:19.726Z,73.16
2023-05-06T11:35:19.872Z,73.36
2023-05-06T11:36:20.065Z,72.75
2023-05-06T11:37:20.222Z,73.36
2023-05-06T11:38:20.420Z,72.85
2023-05-06T11:39:20.608Z,73.53
2023-05-06T11:40:20.765Z,73.63
2023-05-06T11:41:21.073Z,73.02
2023-05-06T11:42:21.096Z,73.43
2023-05-06T11:43:21.274Z,72.92
2023-05-06T11:44:21.415Z,73.36
2023-05-06T11:45:21.598Z,73.97
2023-05-06T11:46:21.877Z,73.77
2023-05-06T11:47:21.993Z,73.06
2023-05-06T11:48:22.100Z,72.75
2023-05-06T11:49:22.339Z,73.57
2023-05-06T11:50:22.478Z,74.38
2023-05-06T11:51:22.655Z,73.97
2023-05-06T11:52:22.834Z,74.48
2023-05-06T11:53:23.020Z,73.67
2023-05-06T11:54:23.162Z,73.67
2023-05-06T11:55:23.331Z,74.18
2023-05-06T11:56:23.520Z,74.07
2023-05-06T11:57:23.671Z,73.06
2023-05-06T11:58:23.821Z,73.06
2023-05-06T11:59:23.980Z,73.26
2023-05-06T12:00:24.164Z,73.67
2023-05-06T12:01:24.355Z,74.18
2023-05-06T12:02:24.575Z,73.97
2023-05-06T12:03:24.895Z,73.87
2023-05-06T12:04:24.904Z,73.36
2023-05-06T12:05:25.034Z,73.57
2023-05-06T12:06:25.242Z,73.97
2023-05-06T12:07:25.388Z,74.24
2023-05-06T12:08:27.931Z,73.74
2023-05-06T12:09:25.767Z,72.55
2023-05-06T12:10:25.911Z,71.94
2023-05-06T12:11:26.095Z,72.25
2023-05-06T12:12:26.273Z,73.06
2023-05-06T12:13:26.466Z,72.85
2023-05-06T12:14:26.658Z,73.36
2023-05-06T12:15:26.848Z,72.34
2023-05-06T12:16:27.075Z,73.26
2023-05-06T12:17:27.241Z,74.28
2023-05-06T12:18:27.380Z,73.36
2023-05-06T12:19:27.571Z,74.07
2023-05-06T12:20:27.738Z,73.13
2023-05-06T12:21:27.964Z,72.92
2023-05-06T12:22:28.077Z,73.74
2023-05-06T12:23:28.292Z,71.80
2023-05-06T12:24:28.446Z,72.85
2023-05-06T12:25:28.634Z,73.06
2023-05-06T12:26:28.778Z,73.26
2023-05-06T12:27:28.965Z,74.14
2023-05-06T12:28:29.121Z,74.24
2023-05-06T12:29:29.309Z,73.83
2023-05-06T12:30:29.521Z,73.13
2023-05-06T12:31:29.660Z,72.92
2023-05-06T12:32:29.932Z,72.82
2023-05-06T12:33:30.050Z,72.01
2023-05-06T12:34:30.250Z,71.80
2023-05-06T12:35:30.381Z,71.53
2023-05-06T12:36:30.572Z,71.94
2023-05-06T12:37:30.731Z,71.64
2023-05-06T12:38:30.926Z,72.85
2023-05-06T12:39:31.073Z,72.25
2023-05-06T12:40:31.258Z,72.65
2023-05-06T12:41:31.435Z,72.85
2023-05-06T12:42:31.629Z,72.17
2023-05-06T12:43:31.798Z,71.97
2023-05-06T12:44:31.950Z,72.08
2023-05-06T12:45:32.138Z,72.58
2023-05-06T12:46:32.296Z,72.69
2023-05-06T12:47:32.453Z,72.69
2023-05-06T12:48:32.610Z,72.28
2023-05-06T12:49:32.766Z,73.09
2023-05-06T12:50:32.933Z,71.70
2023-05-06T12:51:33.126Z,73.54
2023-05-06T12:52:33.317Z,72.11
2023-05-06T12:53:33.478Z,73.02
2023-05-06T12:54:33.663Z,73.63